Brodhead, KY (40409)

6:45 PM EDT on August 28, 2016 (GMT -0400)
Maretburg | | Change Station
Active Advisory: Areal Flood Advisory Active Notice: Record Report

Elev 1115 ft 37.34 °N, 84.40 °W | Updated 6 minutes ago

Overcast
Overcast
72.0 °F
Feels Like 72.0 °F
N
6.8
Wind Variable Wind from NW

Today
High -- | Low -- °F
--% Chance of Precip.
Yesterday
High -- | Low -- °F
Precip. -- in
Pressure 30.22 in
Visibility 10.0 miles
Clouds Scattered Clouds 3700 ft
Mostly Cloudy 4400 ft
Overcast 6000 ft
Dew Point 70 °F
Humidity 93%
Rainfall 0.00 in
Snow Depth Not available.
7:05 AM 8:11 PM
Waning Crescent, 13% visible
METAR KDVK 282235Z AUTO 10007G20KT 10SM SCT037 BKN044 OVC060 22/19 A3022 RMK AO2
Pressure 30.22 in
Visibility 10.0 miles
Clouds Scattered Clouds 3700 ft
Mostly Cloudy 4400 ft
Overcast 6000 ft
Dew Point 70 °F
Humidity 93%
Rainfall 0.00 in
Snow Depth Not available.
7:05 AM 8:11 PM
Waning Crescent, 13% visible
METAR KDVK 282235Z AUTO 10007G20KT 10SM SCT037 BKN044 OVC060 22/19 A3022 RMK AO2

10-Day Weather Forecast

Almanac

Astronomy

Aug. 28, 2016 Rise Set
Actual Time
Civil Twilight
Nautical Twilight
Astronomical Twilight
Moon
Length of Visible Light
Length of Day
Tomorrow will be .
, % of the Moon is Illuminated

Today's Extremes

State Highs State Lows

Community

WunderPhotos

Upload Photos

1,935,705 photos uploaded!

WunderBlog® & News

Nearby

Air Quality

  Air Quality AQ Index Pollutant
Not available.

Snow Depth

Station Depth Elevation

Earthquake Activity

City Distance Mag. Time & Date
Minimum magnitude displayed is 2.5.

Coastal Water Temperatures

Place Temperature

Stations

Nearby Weather Stations

Station Location Temp. Windchill Dew Point Humidity Wind Precip. Elev Updated Type
                   

Watches & Warnings

Areal Flood Advisory
Issued: 5:34 PM EDT Aug. 28, 2016 – National Weather Service

The National Weather Service in Jackson KY has issued a

* Flood Advisory for minor flooding in poor drainage areas for...
northwestern Jackson County in southeastern Kentucky...
northern Rockcastle County in south central Kentucky...

* until 730 PM EDT

* at 534 PM EDT... Doppler radar indicated heavy rain due to
thunderstorms. This will cause minor flooding. Overflowing poor
drainage areas will result in minor flooding in the advisory area.

* Some locations that will experience flooding include...
Boone... Kerby Knob... Climax... Hisel... Clover Bottom... Snider...
Conway... Indian Lakes park... Gum Sulphur... Shirley... Alcorn...
Morrill... Roundstone... Disputanta... Hiatt and Brodhead.

Precautionary/preparedness actions...

Turn around... don't drown when encountering flooded roads. Most flood
deaths occur in vehicles.


Lat... Lon 3748 8445 3747 8438 3750 8435 3752 8436
      3754 8435 3753 8430 3752 8430 3751 8426
      3753 8423 3752 8420 3756 8415 3757 8397
      3746 8421 3739 8448


Geogerian